Main page
METAR-TAF:

METAR-TAF

Airports :

Benbecula, Scotland

Benbecula Airport

latitude: 57-28N, longitude: 007-22W, elevation: 6 m

Current weather observation

The report was made 45 minutes ago, at 21:20 UTC
Wind 5 kt from the Southwest
Temperature 7°C
Humidity 87%
Pressure 1017 hPa
Visibility 10 km or more

METAR: EGPL 192120Z AUTO 23005KT 9999 NCD 07/05 Q1017

Time: 22:05 (22:05 UTC)

Forecast

The report was made 8 hours and 4 minutes ago, at 14:01 UTC
Forecast valid from 19 at 15 UTC to 19 at 17 UTC
Wind 12 kt from the Southwest
Visibility: 7000 m
Broken clouds at a height of 900 ft
light rain
Becoming
from 19 at 15 UTC to 19 at 17 UTC
Wind 12 kt from the West/Northwest
Probability 40% :
Temporary
from 19 at 15 UTC to 19 at 16 UTC
Visibility: 3000 m
Broken clouds at a height of 300 ft
rain, drizzle, mist

TAF: EGPL 191401Z 1915/1917 22012KT 7000 -RA BKN009 BECMG 1915/1917 29012KT PROB40 TEMPO 1915/1916 3000 RADZ BR BKN003

Weather observations and forecasts of more than 4000 airports (METAR and TAF reports).

The available stations are represented by yellow and red dots on the map.

Hover mouse over dot to see the name of the station.

Then click to see weather observations and forecasts.

To change the map : click on the green buttons with a black cross to zoom in, on the green button with a dash to zoom out, or on the green arrows for adjacent maps.


METAR-TAF: